LRTR/TSR METAR and TAF weather

Enter ICAO airport designator
Station Type Date Time Source
LRTR METAR 2022/05/24 11:30 UTC NOAA

LRTR 241130Z 09010KT CAVOK 19/14 Q1011 NOSIG


Station Type Date Time Source
LRTR Decoded METAR 2022/05/24 11:30 UTC NOAA

Timisoara, Romania (LRTR) 45-46N 021-15E 88M
May 24, 2022 - 07:30 AM EDT / 2022.05.24 1130 UTC
Wind: from the E (090 degrees) at 12 MPH (10 KT):0
Visibility: greater than 7 mile(s):0
Temperature: 66 F (19 C)
Dew Point: 57 F (14 C)
Relative Humidity: 72%
Pressure (altimeter): 29.85 in. Hg (1011 hPa)
ob: LRTR 241130Z 09010KT CAVOK 19/14 Q1011 NOSIG
cycle: 11

Station Type Date Time Source
LRTR TAF 2022/05/24 12:37 UTC NOAA

TAF LRTR 241100Z 2412/2512 08009KT CAVOK
BECMG 2506/2508 19012KT

Example: see airport list